createdAt,value
2019-01-25T00:02:09.691Z,56.97
2019-01-25T00:04:46.070Z,56.20
2019-01-25T00:07:17.398Z,52.37
2019-01-25T00:09:49.005Z,51.87
2019-01-25T00:12:20.483Z,54.50
2019-01-25T00:14:54.675Z,54.37
2019-01-25T00:17:26.566Z,54.30
2019-01-25T00:19:58.056Z,55.77
2019-01-25T00:22:31.915Z,51.23
2019-01-25T00:25:03.432Z,58.63
2019-01-25T00:27:34.798Z,56.13
2019-01-25T00:30:08.127Z,54.47
2019-01-25T00:32:41.449Z,52.57
2019-01-25T00:35:12.922Z,54.70
2019-01-25T00:37:44.268Z,51.80
2019-01-25T00:40:16.964Z,50.73
2019-01-25T00:42:48.888Z,54.17
2019-01-25T00:45:20.323Z,58.30
2019-01-25T00:47:52.845Z,49.17
2019-01-25T00:50:27.163Z,50.63
2019-01-25T00:52:58.497Z,52.93
2019-01-25T00:55:29.799Z,52.77
2019-01-25T00:58:05.782Z,50.43
2019-01-25T01:00:37.270Z,57.03
2019-01-25T01:03:08.882Z,51.63
2019-01-25T01:05:41.828Z,55.53
2019-01-25T01:08:13.097Z,52.17
2019-01-25T01:10:44.400Z,56.40
2019-01-25T01:13:15.817Z,49.43
2019-01-25T01:15:47.189Z,58.67
2019-01-25T01:18:18.510Z,47.50
2019-01-25T01:20:50.011Z,55.67
2019-01-25T01:23:21.297Z,53.37
2019-01-25T01:25:52.486Z,63.70
2019-01-25T01:28:23.728Z,57.77
2019-01-25T01:30:54.946Z,61.57
2019-01-25T01:33:26.170Z,56.30
2019-01-25T01:35:57.463Z,56.93
2019-01-25T01:38:28.819Z,59.13
2019-01-25T01:41:00.095Z,61.17
2019-01-25T01:43:31.458Z,62.70
2019-01-25T01:46:02.790Z,64.70
2019-01-25T01:48:34.070Z,55.83
2019-01-25T01:51:05.614Z,58.60
2019-01-25T01:53:36.847Z,57.40
2019-01-25T01:56:08.243Z,58.73
2019-01-25T01:58:39.575Z,58.90
2019-01-25T02:01:10.825Z,61.73
2019-01-25T02:03:42.026Z,57.67
2019-01-25T02:06:14.473Z,59.23
2019-01-25T02:08:45.789Z,58.00
2019-01-25T02:11:17.036Z,62.33
2019-01-25T02:13:48.274Z,54.07
2019-01-25T02:16:19.590Z,53.23
2019-01-25T02:18:50.799Z,62.40
2019-01-25T02:21:22.040Z,54.70
2019-01-25T02:23:53.445Z,58.03
2019-01-25T02:26:24.759Z,61.53
2019-01-25T02:28:56.076Z,57.67
2019-01-25T02:31:27.279Z,64.67
2019-01-25T02:33:58.627Z,61.27
2019-01-25T02:36:29.987Z,57.10
2019-01-25T02:39:01.254Z,54.03
2019-01-25T02:41:32.623Z,64.23
2019-01-25T02:44:03.875Z,62.27
2019-01-25T02:46:35.186Z,61.37
2019-01-25T02:49:06.480Z,51.90
2019-01-25T02:51:37.713Z,59.13
2019-01-25T02:54:09.105Z,66.77
2019-01-25T02:56:40.348Z,66.27
2019-01-25T02:59:11.600Z,56.77
2019-01-25T03:01:42.802Z,60.53
2019-01-25T03:04:14.064Z,60.83
2019-01-25T03:06:45.321Z,57.77
2019-01-25T03:09:16.635Z,61.23
2019-01-25T03:11:48.323Z,71.17
2019-01-25T03:14:19.664Z,58.40
2019-01-25T03:16:50.927Z,62.43
2019-01-25T03:19:23.181Z,60.20
2019-01-25T03:21:54.491Z,57.83
2019-01-25T03:24:25.845Z,67.57
2019-01-25T03:26:57.141Z,59.77
2019-01-25T03:29:28.348Z,62.77
2019-01-25T03:31:59.699Z,62.60
2019-01-25T03:34:31.010Z,68.83
2019-01-25T03:37:02.199Z,60.87
2019-01-25T03:39:33.521Z,66.83
2019-01-25T03:42:05.125Z,63.50
2019-01-25T03:44:36.520Z,66.63
2019-01-25T03:47:07.743Z,66.17
2019-01-25T03:49:38.988Z,63.53
2019-01-25T03:52:10.310Z,63.83
2019-01-25T03:54:41.676Z,59.93
2019-01-25T03:57:13.114Z,58.57
2019-01-25T03:59:44.447Z,61.90
2019-01-25T04:02:15.672Z,62.77
2019-01-25T04:04:46.995Z,59.33
2019-01-25T04:07:26.169Z,60.90
2019-01-25T04:09:57.548Z,64.70
2019-01-25T04:12:28.928Z,69.60
2019-01-25T04:15:00.212Z,60.33
2019-01-25T04:17:31.579Z,68.40
2019-01-25T04:20:02.905Z,63.57
2019-01-25T04:22:34.290Z,63.13
2019-01-25T04:25:07.963Z,64.77
2019-01-25T04:27:40.655Z,61.87
2019-01-25T04:30:17.848Z,68.87
2019-01-25T04:32:49.208Z,62.97
2019-01-25T04:35:20.372Z,68.30
2019-01-25T04:37:52.721Z,61.97
2019-01-25T04:40:23.916Z,61.80
2019-01-25T04:42:55.311Z,67.73
2019-01-25T04:45:26.522Z,59.93
2019-01-25T04:47:57.801Z,69.17
2019-01-25T04:50:29.095Z,63.20
2019-01-25T04:53:00.378Z,59.90
2019-01-25T04:55:33.313Z,60.73
2019-01-25T04:58:16.157Z,57.23
2019-01-25T05:00:47.909Z,62.20
2019-01-25T05:03:22.306Z,64.80
2019-01-25T05:05:53.659Z,60.67
2019-01-25T05:08:24.852Z,67.33
2019-01-25T05:10:56.048Z,68.47
2019-01-25T05:13:27.375Z,71.10
2019-01-25T05:15:58.796Z,64.83
2019-01-25T05:18:30.123Z,73.43
2019-01-25T05:21:01.388Z,64.83
2019-01-25T05:23:32.583Z,68.80
2019-01-25T05:26:03.957Z,57.17
2019-01-25T05:28:35.352Z,64.03
2019-01-25T05:31:08.080Z,62.57
2019-01-25T05:33:39.455Z,61.93
2019-01-25T05:36:10.714Z,74.90
2019-01-25T05:38:47.076Z,71.53
2019-01-25T05:41:19.470Z,69.87
2019-01-25T05:43:50.689Z,63.93
2019-01-25T05:46:22.000Z,68.03
2019-01-25T05:48:53.377Z,67.20
2019-01-25T05:51:24.857Z,66.40
2019-01-25T05:53:56.163Z,63.80
2019-01-25T05:56:27.415Z,67.20
2019-01-25T05:58:58.727Z,64.07
2019-01-25T06:01:29.987Z,65.03
2019-01-25T06:04:01.275Z,63.43
2019-01-25T06:06:32.498Z,82.53
2019-01-25T06:09:05.348Z,68.00
2019-01-25T06:11:37.901Z,66.10
2019-01-25T06:14:09.269Z,64.13
2019-01-25T06:16:42.165Z,57.13
2019-01-25T06:19:13.519Z,69.33
2019-01-25T06:21:44.647Z,64.00
2019-01-25T06:24:16.111Z,72.07
2019-01-25T06:26:47.417Z,68.93
2019-01-25T06:29:18.728Z,68.03
2019-01-25T06:31:49.940Z,69.67
2019-01-25T06:34:21.216Z,62.13
2019-01-25T06:36:52.414Z,62.77
2019-01-25T06:39:23.710Z,68.83
2019-01-25T06:41:54.978Z,65.53
2019-01-25T06:44:26.165Z,60.97
2019-01-25T06:46:57.427Z,67.37
2019-01-25T06:49:28.674Z,69.00
2019-01-25T06:51:59.977Z,68.20
2019-01-25T06:54:31.330Z,74.60
2019-01-25T06:57:04.483Z,131.67
2019-01-25T06:59:39.076Z,87.63
2019-01-25T07:02:17.453Z,62.63
2019-01-25T07:04:48.823Z,74.17
2019-01-25T07:07:28.194Z,66.67
2019-01-25T07:09:59.477Z,66.97
2019-01-25T07:12:30.782Z,64.13
2019-01-25T07:15:03.128Z,62.73
2019-01-25T07:17:34.430Z,69.43
2019-01-25T07:20:07.648Z,70.07
2019-01-25T07:22:38.870Z,67.67
2019-01-25T07:25:10.717Z,70.13
2019-01-25T07:27:41.980Z,63.13
2019-01-25T07:30:13.334Z,70.53
2019-01-25T07:32:44.633Z,64.43
2019-01-25T07:35:15.907Z,74.63
2019-01-25T07:37:47.371Z,72.30
2019-01-25T07:40:18.669Z,70.30
2019-01-25T07:42:50.206Z,74.27
2019-01-25T07:45:21.804Z,69.40
2019-01-25T07:47:54.438Z,71.43
2019-01-25T07:50:25.700Z,70.83
2019-01-25T07:52:56.930Z,73.20
2019-01-25T07:55:28.145Z,69.80
2019-01-25T07:57:59.531Z,71.90
2019-01-25T08:00:30.738Z,75.70
2019-01-25T08:03:02.041Z,68.60
2019-01-25T08:05:33.257Z,68.60
2019-01-25T08:08:04.431Z,77.07
2019-01-25T08:10:36.729Z,76.70
2019-01-25T08:13:07.899Z,74.93
2019-01-25T08:15:39.139Z,68.40
2019-01-25T08:18:10.548Z,71.83
2019-01-25T08:20:41.864Z,71.20
2019-01-25T08:23:13.033Z,67.57
2019-01-25T08:25:44.347Z,73.83
2019-01-25T08:28:15.579Z,76.73
2019-01-25T08:30:46.919Z,79.57
2019-01-25T08:33:18.165Z,75.43
2019-01-25T08:35:49.572Z,77.53
2019-01-25T08:38:20.836Z,77.33
2019-01-25T08:40:52.153Z,72.93
2019-01-25T08:43:23.349Z,75.43
2019-01-25T08:45:54.585Z,76.90
2019-01-25T08:48:25.976Z,75.20
2019-01-25T08:50:57.317Z,70.17
2019-01-25T08:53:28.603Z,73.70
2019-01-25T08:55:59.889Z,78.20
2019-01-25T08:58:31.235Z,71.43
2019-01-25T09:01:02.542Z,76.57
2019-01-25T09:03:34.769Z,77.90
2019-01-25T09:06:06.063Z,82.97
2019-01-25T09:08:37.394Z,73.73
2019-01-25T09:11:08.612Z,75.07
2019-01-25T09:13:39.938Z,83.37
2019-01-25T09:16:11.352Z,77.37
2019-01-25T09:18:42.553Z,83.50
2019-01-25T09:21:13.903Z,76.40
2019-01-25T09:23:45.263Z,79.03
2019-01-25T09:26:16.520Z,77.40
2019-01-25T09:28:47.926Z,81.87
2019-01-25T09:31:19.345Z,82.60
2019-01-25T09:33:50.728Z,81.80
2019-01-25T09:36:21.982Z,83.27
2019-01-25T09:38:53.461Z,82.30
2019-01-25T09:41:24.704Z,89.40
2019-01-25T09:43:56.074Z,81.47
2019-01-25T09:46:27.286Z,82.90
2019-01-25T09:48:58.498Z,74.13
2019-01-25T09:51:29.770Z,77.13
2019-01-25T09:54:01.054Z,80.87
2019-01-25T09:56:32.420Z,77.50
2019-01-25T09:59:04.003Z,76.43
2019-01-25T10:01:35.579Z,82.20
2019-01-25T10:04:06.949Z,87.57
2019-01-25T10:06:38.415Z,82.37
2019-01-25T10:09:10.137Z,80.23
2019-01-25T10:11:41.431Z,80.50
2019-01-25T10:14:12.607Z,75.73
2019-01-25T10:16:44.871Z,82.33
2019-01-25T10:19:16.260Z,81.30
2019-01-25T10:21:47.505Z,77.70
2019-01-25T10:24:18.744Z,79.57
2019-01-25T10:26:49.922Z,81.87
2019-01-25T10:29:21.303Z,85.50
2019-01-25T10:31:52.552Z,78.50
2019-01-25T10:34:23.810Z,88.90
2019-01-25T10:36:56.170Z,80.37
2019-01-25T10:39:27.447Z,84.43
2019-01-25T10:41:58.757Z,80.37
2019-01-25T10:44:31.016Z,83.17
2019-01-25T10:47:02.428Z,83.37
2019-01-25T10:49:33.616Z,83.83
2019-01-25T10:52:04.808Z,76.70
2019-01-25T10:54:36.146Z,79.93
2019-01-25T10:57:07.346Z,83.97
2019-01-25T10:59:39.569Z,80.30
2019-01-25T11:02:10.890Z,84.20
2019-01-25T11:04:42.167Z,91.10
2019-01-25T11:07:13.563Z,82.43
2019-01-25T11:09:44.870Z,80.27
2019-01-25T11:12:17.344Z,86.00
2019-01-25T11:14:48.513Z,86.00
2019-01-25T11:17:19.935Z,83.80
2019-01-25T11:19:51.311Z,75.00
2019-01-25T11:22:22.947Z,84.10
2019-01-25T11:24:54.291Z,81.90
2019-01-25T11:27:25.577Z,82.43
2019-01-25T11:29:56.928Z,73.73
2019-01-25T11:32:28.320Z,85.47
2019-01-25T11:34:59.681Z,86.03
2019-01-25T11:37:31.098Z,86.27
2019-01-25T11:40:02.811Z,87.97
2019-01-25T11:42:34.008Z,86.57
2019-01-25T11:45:06.064Z,90.03
2019-01-25T11:47:37.274Z,87.80
2019-01-25T11:50:10.997Z,84.70
2019-01-25T11:52:42.594Z,92.70
2019-01-25T11:55:14.491Z,88.80
2019-01-25T11:57:45.895Z,92.60
2019-01-25T12:00:22.921Z,83.90
2019-01-25T12:02:54.411Z,85.70
2019-01-25T12:05:25.811Z,71.17
2019-01-25T12:07:57.098Z,76.53
2019-01-25T12:10:29.715Z,83.47
2019-01-25T12:13:01.109Z,74.73
2019-01-25T12:15:32.401Z,73.13
2019-01-25T12:18:03.637Z,76.97
2019-01-25T12:20:34.918Z,67.93
2019-01-25T12:23:06.244Z,75.20
2019-01-25T12:25:37.462Z,74.60
2019-01-25T12:28:08.702Z,76.30
2019-01-25T12:30:42.187Z,85.47
2019-01-25T12:33:13.511Z,81.60
2019-01-25T12:35:45.386Z,79.70
2019-01-25T12:38:16.651Z,75.90
2019-01-25T12:40:47.924Z,87.60
2019-01-25T12:43:23.890Z,85.60
2019-01-25T12:45:52.283Z,90.17
2019-01-25T12:48:23.551Z,78.20
2019-01-25T12:51:05.889Z,68.43
2019-01-25T12:53:37.241Z,70.30
2019-01-25T12:56:08.579Z,85.10
2019-01-25T12:58:40.396Z,68.03
2019-01-25T13:01:12.090Z,84.47
2019-01-25T13:03:43.644Z,85.20
2019-01-25T13:06:14.948Z,59.87
2019-01-25T13:08:46.422Z,73.73
2019-01-25T13:11:20.772Z,69.90
2019-01-25T13:13:52.518Z,63.23
2019-01-25T13:16:24.034Z,56.37
2019-01-25T13:18:55.264Z,52.27
2019-01-25T13:21:26.629Z,49.83
2019-01-25T13:23:57.891Z,57.17
2019-01-25T13:26:29.137Z,59.87
2019-01-25T13:29:00.568Z,61.20
2019-01-25T13:31:31.922Z,67.90
2019-01-25T13:34:03.431Z,61.93
2019-01-25T13:36:34.605Z,61.03
2019-01-25T13:39:09.495Z,54.43
2019-01-25T13:41:42.412Z,55.67
2019-01-25T13:44:13.625Z,58.07
2019-01-25T13:46:44.997Z,64.43
2019-01-25T13:49:16.190Z,64.83
2019-01-25T13:51:47.426Z,57.30
2019-01-25T13:54:18.629Z,56.37
2019-01-25T13:56:49.997Z,55.23
2019-01-25T13:59:21.311Z,55.37
2019-01-25T14:01:56.203Z,57.33
2019-01-25T14:04:25.686Z,51.43
2019-01-25T14:06:56.842Z,54.77
2019-01-25T14:09:28.186Z,51.37
2019-01-25T14:11:59.799Z,42.37
2019-01-25T14:14:31.079Z,53.60
2019-01-25T14:17:02.482Z,46.47
2019-01-25T14:19:33.850Z,45.27
2019-01-25T14:22:05.293Z,33.97
2019-01-25T14:24:37.122Z,35.20
2019-01-25T14:27:08.441Z,43.53
2019-01-25T14:29:39.673Z,46.40
2019-01-25T14:32:11.048Z,53.57
2019-01-25T14:34:42.391Z,44.40
2019-01-25T14:37:13.714Z,44.17
2019-01-25T14:39:45.068Z,41.17
2019-01-25T14:42:16.500Z,37.10
2019-01-25T14:44:47.884Z,41.80
2019-01-25T14:47:19.285Z,44.33
2019-01-25T14:49:51.638Z,44.70
2019-01-25T14:52:23.042Z,44.63
2019-01-25T14:54:54.498Z,48.27
2019-01-25T14:57:25.907Z,50.70
2019-01-25T14:59:57.169Z,54.10
2019-01-25T15:02:29.325Z,52.53
2019-01-25T15:05:01.584Z,49.70
2019-01-25T15:07:32.832Z,53.20
2019-01-25T15:10:04.840Z,49.80
2019-01-25T15:12:37.169Z,44.37
2019-01-25T15:15:10.169Z,47.40
2019-01-25T15:17:41.552Z,41.87
2019-01-25T15:20:15.740Z,43.53
2019-01-25T15:22:47.254Z,50.13
2019-01-25T15:25:18.803Z,47.00
2019-01-25T15:27:50.094Z,38.37
2019-01-25T15:30:24.416Z,49.93
2019-01-25T15:32:56.214Z,46.57
2019-01-25T15:35:27.628Z,47.87
2019-01-25T15:37:58.986Z,43.40
2019-01-25T15:40:30.554Z,45.87
2019-01-25T15:43:02.057Z,48.90
2019-01-25T15:45:33.406Z,53.30
2019-01-25T15:48:04.912Z,41.73
2019-01-25T15:50:36.133Z,45.37
2019-01-25T15:53:07.510Z,40.63
2019-01-25T15:55:38.904Z,46.63
2019-01-25T15:58:10.142Z,46.97
2019-01-25T16:00:41.547Z,53.73
2019-01-25T16:03:12.836Z,56.13
2019-01-25T16:05:44.184Z,43.30
2019-01-25T16:08:15.353Z,52.20
2019-01-25T16:10:46.727Z,38.93
2019-01-25T16:13:18.039Z,44.03
2019-01-25T16:15:49.367Z,52.90
2019-01-25T16:18:20.972Z,55.93
2019-01-25T16:20:52.234Z,49.23
2019-01-25T16:23:23.572Z,47.23
2019-01-25T16:25:54.761Z,53.83
2019-01-25T16:28:26.030Z,51.13
2019-01-25T16:30:57.354Z,54.70
2019-01-25T16:33:28.666Z,44.20
2019-01-25T16:35:59.898Z,44.20
2019-01-25T16:38:31.384Z,47.03
2019-01-25T16:41:02.663Z,33.30
2019-01-25T16:43:36.063Z,47.50
2019-01-25T16:46:09.167Z,47.67
2019-01-25T16:48:40.444Z,47.93
2019-01-25T16:51:11.726Z,52.30
2019-01-25T16:53:43.062Z,50.53
2019-01-25T16:56:14.365Z,45.87
2019-01-25T16:58:45.933Z,53.90
2019-01-25T17:01:17.252Z,46.80
2019-01-25T17:03:48.527Z,49.47
2019-01-25T17:06:19.844Z,55.03
2019-01-25T17:08:51.011Z,49.43
2019-01-25T17:11:22.288Z,51.97
2019-01-25T17:13:53.930Z,58.47
2019-01-25T17:16:25.144Z,52.70
2019-01-25T17:18:56.892Z,56.23
2019-01-25T17:21:28.220Z,59.90
2019-01-25T17:23:59.529Z,53.70
2019-01-25T17:26:31.700Z,54.60
2019-01-25T17:29:03.008Z,52.13
2019-01-25T17:31:34.391Z,52.53
2019-01-25T17:34:05.858Z,55.73
2019-01-25T17:36:37.423Z,52.50
2019-01-25T17:39:14.455Z,48.60
2019-01-25T17:41:45.813Z,51.73
2019-01-25T17:44:17.371Z,50.67
2019-01-25T17:46:48.670Z,52.50
2019-01-25T17:49:20.092Z,42.33
2019-01-25T17:51:51.991Z,49.93
2019-01-25T17:54:23.475Z,52.63
2019-01-25T17:56:54.960Z,50.63
2019-01-25T17:59:26.707Z,54.60
2019-01-25T18:01:58.271Z,46.30
2019-01-25T18:04:29.823Z,51.63
2019-01-25T18:07:01.055Z,50.73
2019-01-25T18:09:32.287Z,54.43
2019-01-25T18:12:03.848Z,53.47
2019-01-25T18:14:35.203Z,50.00
2019-01-25T18:17:06.553Z,43.37
2019-01-25T18:19:38.125Z,50.53
2019-01-25T18:22:09.743Z,46.43
2019-01-25T18:24:40.994Z,45.50
2019-01-25T18:27:12.294Z,47.37
2019-01-25T18:29:59.032Z,51.33
2019-01-25T18:32:30.553Z,47.63
2019-01-25T18:35:01.830Z,49.97
2019-01-25T18:37:33.775Z,48.07
2019-01-25T18:40:07.138Z,46.50
2019-01-25T18:42:38.642Z,52.77
2019-01-25T18:45:13.072Z,48.00
2019-01-25T18:47:44.330Z,51.50
2019-01-25T18:50:17.349Z,54.27
2019-01-25T18:52:48.938Z,47.50
2019-01-25T18:55:21.576Z,54.60
2019-01-25T18:57:53.280Z,55.53
2019-01-25T19:00:26.042Z,52.67
2019-01-25T19:02:57.966Z,52.40
2019-01-25T19:05:30.623Z,54.23
2019-01-25T19:08:02.035Z,49.27
2019-01-25T19:10:33.643Z,51.47
2019-01-25T19:13:06.427Z,45.53
2019-01-25T19:15:37.887Z,51.53
2019-01-25T19:18:09.657Z,53.23
2019-01-25T19:20:44.448Z,50.87
2019-01-25T19:23:15.546Z,50.13
2019-01-25T19:25:47.286Z,47.03
2019-01-25T19:28:19.819Z,41.37
2019-01-25T19:30:51.270Z,44.83
2019-01-25T19:33:22.877Z,45.30
2019-01-25T19:35:54.228Z,48.33
2019-01-25T19:38:25.777Z,45.77
2019-01-25T19:40:57.229Z,53.53
2019-01-25T19:43:28.581Z,48.43
2019-01-25T19:45:59.981Z,41.13
2019-01-25T19:48:31.346Z,49.70
2019-01-25T19:51:02.717Z,42.53
2019-01-25T19:53:33.949Z,47.30
2019-01-25T19:56:05.500Z,47.80
2019-01-25T19:58:36.903Z,57.17
2019-01-25T20:01:08.562Z,55.27
2019-01-25T20:03:40.047Z,51.20
2019-01-25T20:06:11.288Z,46.97
2019-01-25T20:08:43.614Z,46.77
2019-01-25T20:11:14.913Z,49.50
2019-01-25T20:13:46.427Z,53.67
2019-01-25T20:16:17.756Z,47.03
2019-01-25T20:18:49.392Z,47.93
2019-01-25T20:21:20.803Z,51.43
2019-01-25T20:23:52.177Z,49.10
2019-01-25T20:26:23.715Z,52.23
2019-01-25T20:28:55.192Z,46.33
2019-01-25T20:31:27.652Z,54.10
2019-01-25T20:33:59.105Z,55.87
2019-01-25T20:36:30.630Z,59.00
2019-01-25T20:39:02.038Z,50.37
2019-01-25T20:41:34.833Z,51.00
2019-01-25T20:44:06.192Z,50.40
2019-01-25T20:46:37.738Z,48.20
2019-01-25T20:49:09.164Z,50.07
2019-01-25T20:51:40.655Z,50.90
2019-01-25T20:54:11.946Z,52.13
2019-01-25T20:56:43.280Z,53.90
2019-01-25T20:59:14.582Z,59.07
2019-01-25T21:01:45.856Z,49.67
2019-01-25T21:04:17.370Z,53.10
2019-01-25T21:06:49.349Z,51.60
2019-01-25T21:09:20.909Z,52.63
2019-01-25T21:11:52.381Z,53.80
2019-01-25T21:14:23.880Z,45.93
2019-01-25T21:16:55.326Z,44.53
2019-01-25T21:19:35.386Z,45.23
2019-01-25T21:22:44.926Z,45.80
2019-01-25T21:25:25.716Z,46.83
2019-01-25T21:28:09.604Z,52.20
2019-01-25T21:30:41.341Z,42.60
2019-01-25T21:33:14.977Z,48.70
2019-01-25T21:35:46.229Z,45.50
2019-01-25T21:38:17.674Z,44.23
2019-01-25T21:40:49.093Z,43.13
2019-01-25T21:43:20.339Z,41.17
2019-01-25T21:45:51.703Z,39.70
2019-01-25T21:48:22.941Z,40.67
2019-01-25T21:51:08.496Z,47.70
2019-01-25T21:53:41.960Z,43.93
2019-01-25T21:56:14.270Z,42.47
2019-01-25T21:58:50.387Z,47.00
2019-01-25T22:01:22.095Z,39.30
2019-01-25T22:04:17.461Z,43.77
2019-01-25T22:06:52.361Z,45.77
2019-01-25T22:09:23.757Z,47.10
2019-01-25T22:11:57.019Z,45.13
2019-01-25T22:14:28.265Z,48.83
2019-01-25T22:16:59.761Z,47.43
2019-01-25T22:19:31.110Z,44.63
2019-01-25T22:22:02.379Z,48.00
2019-01-25T22:24:33.848Z,47.50
2019-01-25T22:27:05.327Z,53.37
2019-01-25T22:29:36.891Z,44.47
2019-01-25T22:32:09.766Z,48.33
2019-01-25T22:34:41.034Z,42.57
2019-01-25T22:37:12.511Z,42.63
2019-01-25T22:39:44.350Z,45.97
2019-01-25T22:42:17.664Z,47.80
2019-01-25T22:44:49.331Z,48.77
2019-01-25T22:47:20.675Z,47.97
2019-01-25T22:49:52.292Z,40.00
2019-01-25T22:52:23.665Z,44.87
2019-01-25T22:54:55.027Z,45.70
2019-01-25T22:57:26.659Z,49.83
2019-01-25T22:59:58.524Z,47.03
2019-01-25T23:02:29.901Z,52.77
2019-01-25T23:05:24.752Z,50.00
2019-01-25T23:07:57.081Z,47.47
2019-01-25T23:10:28.838Z,50.83
2019-01-25T23:13:00.132Z,47.57
2019-01-25T23:15:31.628Z,48.70
2019-01-25T23:18:02.925Z,55.87
2019-01-25T23:20:34.379Z,50.97
2019-01-25T23:23:07.276Z,50.77
2019-01-25T23:25:40.327Z,44.43
2019-01-25T23:28:13.086Z,52.30
2019-01-25T23:30:46.323Z,54.20
2019-01-25T23:33:17.856Z,51.83
2019-01-25T23:35:49.282Z,48.90
2019-01-25T23:38:20.609Z,56.90
2019-01-25T23:40:51.946Z,47.77
2019-01-25T23:43:23.119Z,55.73
2019-01-25T23:45:54.742Z,56.17
2019-01-25T23:48:27.857Z,60.30
2019-01-25T23:50:59.135Z,56.77
2019-01-25T23:53:30.633Z,50.97
2019-01-25T23:56:04.130Z,51.43
2019-01-25T23:58:36.140Z,56.37
